Time;durP1;ratioP1;P1;durP2;ratioP2;P2;SDS_P1;SDS_P2;PMS_P1;PMS_P2;Temp;Humidity;BMP_temperature;BMP_pressure;BME280_temperature;BME280_humidity;BME280_pressure;Samples;Min_cycle;Max_cycle;Signal;HPM_P1;HPM_P2
2022/08/28 00:02:24;;;;;;;21.35;9.80;;;;;;;19.82;66.26;100232.81;1759987;81;27509;-82
2022/08/28 00:04:50;;;;;;;15.55;8.88;;;;;;;19.77;66.33;100234.10;1760328;80;26444;-81
2022/08/28 00:07:17;;;;;;;18.40;9.53;;;;;;;19.70;66.41;100228.86;1760218;80;25276;-82
2022/08/28 00:09:43;;;;;;;11.45;8.88;;;;;;;19.66;66.57;100231.81;1760406;81;25549;-82
2022/08/28 00:12:11;;;;;;;14.15;9.28;;;;;;;19.60;66.86;100236.91;1760638;80;26603;-81
2022/08/28 00:14:38;;;;;;;12.40;9.35;;;;;;;19.54;66.95;100228.95;1760492;81;27477;-81
2022/08/28 00:17:04;;;;;;;17.05;9.48;;;;;;;19.51;67.11;100227.56;1760571;80;25745;-82
2022/08/28 00:19:31;;;;;;;13.78;9.43;;;;;;;19.49;67.24;100230.24;1759359;81;26247;-81
2022/08/28 00:21:57;;;;;;;15.53;9.63;;;;;;;19.48;67.33;100221.83;1760778;81;25773;-82
2022/08/28 00:24:24;;;;;;;15.43;9.50;;;;;;;19.43;67.37;100222.58;1760334;79;25956;-81
2022/08/28 00:29:35;;;;;;;16.02;10.03;;;;;;;19.35;67.90;100223.03;1750825;81;25779;-82
2022/08/28 00:32:02;;;;;;;22.37;11.80;;;;;;;19.29;68.25;100215.84;1760756;80;25797;-81
2022/08/28 00:34:28;;;;;;;15.83;9.80;;;;;;;19.25;68.56;100217.42;1753821;79;25798;-82
2022/08/28 00:36:55;;;;;;;18.25;10.20;;;;;;;19.18;68.56;100214.09;1761857;79;26206;-82
2022/08/28 00:39:21;;;;;;;22.37;10.53;;;;;;;19.15;68.61;100214.58;1762913;80;28111;-82
2022/08/28 00:41:49;;;;;;;16.05;9.23;;;;;;;19.13;68.52;100222.99;1760817;80;26534;-81
2022/08/28 00:44:20;;;;;;;15.63;9.58;;;;;;;19.12;68.53;100215.91;1762412;80;25826;-82
2022/08/28 00:46:49;;;;;;;;;;;;;;;19.13;68.44;100215.38;1768436;80;25732;-81
2022/08/28 00:49:20;;;;;;;13.85;8.15;;;;;;;19.15;68.30;100215.94;1761359;80;25815;-82
2022/08/28 00:54:47;;;;;;;13.05;8.43;;;;;;;19.13;68.13;100215.38;1763356;80;26038;-82
2022/08/28 00:57:19;;;;;;;13.40;9.03;;;;;;;19.12;68.07;100214.55;1764853;80;25769;-81
2022/08/28 00:59:46;;;;;;;15.70;9.10;;;;;;;19.12;67.87;100213.72;1763478;80;26388;-81
2022/08/28 01:02:12;;;;;;;17.60;8.75;;;;;;;19.12;67.83;100219.14;1765388;80;25810;-81
2022/08/28 01:04:40;;;;;;;13.80;8.40;;;;;;;19.10;67.84;100215.34;1764948;80;27447;-81
2022/08/28 01:07:13;;;;;;;16.90;8.75;;;;;;;19.08;67.82;100216.13;1767666;80;26186;-81
2022/08/28 01:09:43;;;;;;;14.55;8.38;;;;;;;19.07;67.80;100213.14;1763734;80;25414;-81
2022/08/28 01:12:17;;;;;;;18.42;9.15;;;;;;;19.06;67.78;100210.66;1757188;80;26610;-81
2022/08/28 01:14:47;;;;;;;13.60;8.63;;;;;;;19.01;67.81;100211.97;1763726;80;26388;-81
2022/08/28 01:17:17;;;;;;;13.60;9.23;;;;;;;18.97;67.83;100209.44;1767350;80;27461;-81
2022/08/28 01:19:54;;;;;;;12.85;8.65;;;;;;;18.94;67.97;100208.60;1762551;80;25758;-81
2022/08/28 01:22:31;;;;;;;17.42;8.65;;;;;;;18.89;68.03;100206.64;1777819;79;25850;-81
2022/08/28 01:25:02;;;;;;;11.85;8.70;;;;;;;18.83;68.06;100207.64;1777003;80;26420;-81
2022/08/28 01:27:29;;;;;;;13.35;9.00;;;;;;;18.77;68.25;100207.29;1776953;79;26310;-81
2022/08/28 01:29:56;;;;;;;12.95;8.65;;;;;;;18.74;68.35;100211.02;1792886;78;27436;-81
2022/08/28 01:32:36;;;;;;;20.82;9.33;;;;;;;18.69;68.44;100202.82;1758485;79;25910;-81
2022/08/28 01:35:08;;;;;;;15.00;8.87;;;;;;;18.65;68.55;100207.91;1750621;80;25389;-80
2022/08/28 01:37:35;;;;;;;15.00;9.00;;;;;;;18.62;68.76;100205.70;1766716;80;25481;-81
2022/08/28 01:40:05;;;;;;;14.85;9.15;;;;;;;18.56;68.90;100199.09;1748643;80;25737;-81
2022/08/28 01:42:41;;;;;;;16.00;8.98;;;;;;;18.45;69.03;100196.20;1737339;82;27470;-82
2022/08/28 01:45:13;;;;;;;12.13;9.18;;;;;;;18.38;69.41;100202.84;1773479;80;25944;-81
2022/08/28 01:47:44;;;;;;;13.28;9.10;;;;;;;18.34;69.68;100208.48;1749857;81;25798;-81
2022/08/28 01:50:15;;;;;;;15.03;9.58;;;;;;;18.29;69.80;100211.09;1759100;79;26053;-81
2022/08/28 01:52:42;;;;;;;16.75;9.53;;;;;;;18.23;69.91;100212.91;1752030;79;25866;-80
2022/08/28 01:55:10;;;;;;;15.88;9.75;;;;;;;18.17;70.00;100215.26;1756417;81;28242;-81
2022/08/28 01:57:48;;;;;;;14.18;8.93;;;;;;;18.12;70.21;100216.52;1744304;81;25754;-81
2022/08/28 02:00:16;;;;;;;15.20;9.15;;;;;;;18.10;70.48;100217.30;1752747;80;25553;-81
2022/08/28 02:02:43;;;;;;;13.38;7.97;;;;;;;18.05;70.57;100210.42;1767978;80;25796;-80
2022/08/28 02:05:10;;;;;;;9.45;7.28;;;;;;;17.98;70.84;100215.72;1755963;80;25905;-81
2022/08/28 02:07:38;;;;;;;11.57;7.97;;;;;;;17.90;71.07;100208.00;1733288;81;27519;-81
2022/08/28 02:10:07;;;;;;;11.97;7.85;;;;;;;17.84;71.22;100207.59;1762395;80;25291;-81
2022/08/28 02:12:34;;;;;;;13.03;7.92;;;;;;;17.80;71.44;100221.34;1748532;81;25336;-81
2022/08/28 02:15:00;;;;;;;11.85;8.43;;;;;;;17.77;71.58;100216.42;1755125;81;25897;-81
2022/08/28 02:17:27;;;;;;;12.37;8.43;;;;;;;17.72;71.54;100210.37;1759930;81;25848;-82
2022/08/28 02:19:53;;;;;;;15.05;8.23;;;;;;;17.69;71.56;100214.38;1757032;81;28386;-81
2022/08/28 02:22:19;;;;;;;12.70;7.92;;;;;;;17.67;71.72;100216.52;1755894;81;25833;-81
2022/08/28 02:24:46;;;;;;;19.98;8.20;;;;;;;17.66;71.78;100222.19;1756386;81;25809;-81
2022/08/28 02:27:13;;;;;;;12.45;9.45;;;;;;;17.67;71.72;100221.10;1754173;81;25744;-81
2022/08/28 02:29:39;;;;;;;11.60;8.58;;;;;;;17.65;71.78;100215.94;1750471;81;26522;-81
2022/08/28 02:32:06;;;;;;;11.93;8.18;;;;;;;17.65;72.01;100217.29;1761992;81;27431;-81
2022/08/28 02:34:36;;;;;;;10.72;8.38;;;;;;;17.60;72.07;100216.34;1763838;80;25592;-81
2022/08/28 02:37:03;;;;;;;14.15;8.98;;;;;;;17.51;72.17;100209.70;1762185;80;25849;-81
2022/08/28 02:39:29;;;;;;;13.10;8.15;;;;;;;17.47;72.36;100216.08;1769322;80;25481;-81
2022/08/28 02:41:55;;;;;;;10.85;8.05;;;;;;;17.46;72.46;100214.97;1771005;80;25770;-81
2022/08/28 02:44:21;;;;;;;15.90;8.63;;;;;;;17.44;72.42;100224.70;1769961;80;28271;-81
2022/08/28 02:46:48;;;;;;;13.58;8.45;;;;;;;17.42;72.41;100212.45;1765803;80;25288;-80
2022/08/28 02:49:14;;;;;;;12.07;8.10;;;;;;;17.40;72.46;100215.94;1769077;80;26005;-81
2022/08/28 02:51:40;;;;;;;10.60;8.53;;;;;;;17.39;72.48;100217.81;1751128;81;26182;-81
2022/08/28 02:54:07;;;;;;;13.32;9.23;;;;;;;17.37;72.54;100213.17;1756326;81;27029;-80
2022/08/28 02:56:33;;;;;;;20.72;9.73;;;;;;;17.35;72.47;100215.83;1742492;81;28429;-81
2022/08/28 02:58:59;;;;;;;11.83;9.40;;;;;;;17.35;72.71;100217.17;1757926;81;25613;-81
2022/08/28 03:01:26;;;;;;;11.83;8.25;;;;;;;17.34;72.78;100210.13;1756076;81;25786;-81
2022/08/28 03:03:53;;;;;;;12.60;8.48;;;;;;;17.28;72.96;100211.90;1775485;80;26289;-81
2022/08/28 03:06:19;;;;;;;13.22;8.50;;;;;;;17.21;73.04;100218.00;1763302;80;25362;-80
2022/08/28 03:08:46;;;;;;;10.43;8.03;;;;;;;17.17;73.24;100212.73;1768375;80;27682;-81
2022/08/28 03:11:12;;;;;;;11.85;8.50;;;;;;;17.17;73.38;100211.94;1762564;80;25825;-82
2022/08/28 03:13:38;;;;;;;10.60;8.48;;;;;;;17.13;73.24;100204.81;1747933;80;25281;-81
2022/08/28 03:16:05;;;;;;;13.35;8.78;;;;;;;17.13;73.33;100202.11;1771020;79;25841;-81
2022/08/28 03:18:31;;;;;;;13.93;8.38;;;;;;;17.11;73.38;100207.49;1763898;80;25819;-81
2022/08/28 03:20:58;;;;;;;11.45;8.53;;;;;;;17.09;73.37;100208.23;1775718;80;27498;-81
2022/08/28 03:23:25;;;;;;;11.93;9.18;;;;;;;17.07;73.33;100206.30;1754234;81;25870;-81
2022/08/28 03:25:59;;;;;;;16.50;9.10;;;;;;;17.02;73.38;100202.14;1739493;81;25728;-81
2022/08/28 03:28:29;;;;;;;16.30;8.80;;;;;;;16.99;73.31;100203.44;1770162;80;26235;-81
2022/08/28 03:30:56;;;;;;;9.57;8.07;;;;;;;16.98;73.41;100210.73;1757104;81;26435;-81
2022/08/28 03:33:24;;;;;;;14.73;9.03;;;;;;;16.98;73.54;100208.02;1755981;81;27461;-81
2022/08/28 03:35:50;;;;;;;11.00;7.78;;;;;;;16.98;73.56;100206.67;1737415;80;25762;-81
2022/08/28 03:38:20;;;;;;;14.87;8.88;;;;;;;16.98;73.56;100205.31;1765265;79;25940;-81
2022/08/28 03:40:47;;;;;;;13.83;9.45;;;;;;;16.98;73.73;100207.19;1776378;80;25760;-81
2022/08/28 03:43:18;;;;;;;12.80;9.20;;;;;;;16.98;73.83;100210.73;1776883;80;25751;-81
2022/08/28 03:46:01;;;;;;;13.35;9.18;;;;;;;16.97;73.82;100208.27;1760813;79;28238;-82
2022/08/28 03:48:31;;;;;;;20.32;8.78;;;;;;;16.97;73.78;100213.68;1755555;79;25872;-81
2022/08/28 03:50:59;;;;;;;15.50;9.20;;;;;;;16.95;73.80;100213.92;1743302;80;25804;-81
2022/08/28 03:53:28;;;;;;;12.40;8.43;;;;;;;16.95;73.90;100217.16;1747947;81;25952;-81
2022/08/28 03:55:56;;;;;;;13.13;8.55;;;;;;;16.98;73.99;100225.33;1744892;81;25315;-81
2022/08/28 03:58:25;;;;;;;13.20;9.33;;;;;;;17.01;74.04;100218.08;1742713;82;27455;-81
2022/08/28 04:00:52;;;;;;;16.30;9.28;;;;;;;17.03;74.03;100226.25;1754327;81;25757;-81
2022/08/28 04:03:18;;;;;;;13.18;9.45;;;;;;;17.04;73.95;100224.38;1762546;80;25316;-80
2022/08/28 04:05:46;;;;;;;17.82;9.88;;;;;;;17.04;73.99;100220.32;1766262;80;25745;-81
2022/08/28 04:08:16;;;;;;;15.78;8.98;;;;;;;17.05;74.02;100224.13;1767914;80;26439;-80
2022/08/28 04:10:44;;;;;;;13.03;9.23;;;;;;;17.06;74.08;100220.91;1764112;80;27496;-81
2022/08/28 04:13:13;;;;;;;13.90;9.33;;;;;;;17.07;74.16;100224.72;1760641;80;25811;-81
2022/08/28 04:15:40;;;;;;;14.15;9.25;;;;;;;17.09;74.21;100229.88;1770296;80;25759;-81
2022/08/28 04:18:09;;;;;;;15.10;9.30;;;;;;;17.11;74.23;100228.59;1757896;80;26265;-81
2022/08/28 04:20:36;;;;;;;16.25;9.33;;;;;;;17.11;74.28;100234.00;1759181;80;25739;-81
2022/08/28 04:23:03;;;;;;;10.95;8.63;;;;;;;17.13;74.36;100236.48;1769256;80;27446;-81
2022/08/28 04:25:30;;;;;;;18.25;8.80;;;;;;;17.12;74.43;100226.71;1770022;80;25400;-81
2022/08/28 04:27:57;;;;;;;14.93;8.28;;;;;;;17.11;74.43;100231.30;1769422;80;25887;-81
2022/08/28 04:30:24;;;;;;;12.65;8.83;;;;;;;17.13;74.44;100225.11;1762647;80;26243;-81
2022/08/28 04:32:50;;;;;;;12.90;7.95;;;;;;;17.14;74.55;100227.30;1774598;80;26152;-80
2022/08/28 04:35:17;;;;;;;17.80;8.45;;;;;;;17.14;74.57;100231.36;1756602;80;27998;-81
2022/08/28 04:37:43;;;;;;;12.73;8.85;;;;;;;17.16;74.69;100231.41;1775636;80;25881;-81
2022/08/28 04:40:11;;;;;;;14.50;8.70;;;;;;;17.16;74.84;100230.58;1772451;80;25946;-81
2022/08/28 04:42:38;;;;;;;13.75;8.53;;;;;;;17.16;74.84;100230.06;1778550;80;25676;-81
2022/08/28 04:45:07;;;;;;;12.50;8.90;;;;;;;17.18;74.96;100232.00;1774511;80;25930;-81
2022/08/28 04:47:37;;;;;;;11.65;8.20;;;;;;;17.22;75.13;100235.03;1775727;80;28223;-81
2022/08/28 04:50:06;;;;;;;12.13;9.35;;;;;;;17.24;75.18;100235.62;1772139;80;25337;-81
2022/08/28 04:52:32;;;;;;;14.43;9.03;;;;;;;17.28;75.26;100232.75;1779985;79;25773;-82
2022/08/28 04:54:59;;;;;;;10.58;8.28;;;;;;;17.32;75.38;100236.63;1775886;80;25849;-81
2022/08/28 04:57:25;;;;;;;12.07;8.95;;;;;;;17.36;75.49;100233.73;1782928;80;25513;-81
2022/08/28 04:59:52;;;;;;;12.73;8.45;;;;;;;17.39;75.70;100225.94;1770395;80;27437;-82
2022/08/28 05:02:18;;;;;;;17.48;9.18;;;;;;;17.43;75.71;100232.52;1774988;80;26109;-82
2022/08/28 05:04:44;;;;;;;14.83;9.28;;;;;;;17.48;75.98;100242.11;1779169;80;25994;-81
2022/08/28 05:07:11;;;;;;;15.28;8.90;;;;;;;17.54;76.29;100241.17;1826430;78;25779;-83
2022/08/28 05:09:37;;;;;;;12.70;7.75;;;;;;;17.65;76.68;100241.67;1826840;77;25752;-83
2022/08/28 05:12:05;;;;;;;15.43;9.38;;;;;;;17.76;76.98;100239.14;1787918;80;27458;-82
2022/08/28 05:14:31;;;;;;;10.85;8.15;;;;;;;17.86;76.80;100235.27;1787062;80;25755;-83
2022/08/28 05:16:58;;;;;;;10.65;8.53;;;;;;;17.97;76.86;100232.51;1767355;80;25620;-82
2022/08/28 05:19:26;;;;;;;12.18;8.88;;;;;;;18.03;76.88;100231.53;1748956;80;25857;-81
2022/08/28 05:21:53;;;;;;;13.88;8.73;;;;;;;18.07;76.78;100234.59;1735653;81;25823;-82
2022/08/28 05:24:21;;;;;;;17.30;8.70;;;;;;;18.09;76.75;100233.81;1788099;80;28241;-82
2022/08/28 05:26:47;;;;;;;14.60;8.30;;;;;;;18.15;76.99;100235.54;1787436;80;25692;-82
2022/08/28 05:29:15;;;;;;;12.82;8.23;;;;;;;18.20;77.12;100236.96;1787797;79;25263;-82
2022/08/28 05:31:42;;;;;;;11.80;7.47;;;;;;;18.26;77.31;100235.45;1768215;80;25633;-81
2022/08/28 05:34:09;;;;;;;11.35;7.60;;;;;;;18.32;77.43;100244.52;1774004;80;25879;-82
2022/08/28 05:36:38;;;;;;;15.18;8.35;;;;;;;18.37;77.50;100243.22;1767126;80;27621;-82
2022/08/28 05:39:08;;;;;;;14.63;8.88;;;;;;;18.41;77.75;100242.48;1753238;80;25816;-82
2022/08/28 05:41:36;;;;;;;13.98;9.30;;;;;;;18.45;77.88;100245.58;1745275;80;25758;-82
2022/08/28 05:44:08;;;;;;;15.72;8.45;;;;;;;18.48;78.13;100245.62;1746799;80;26362;-82
2022/08/28 05:46:38;;;;;;;13.40;8.38;;;;;;;18.52;78.07;100244.06;1741810;80;25877;-82
2022/08/28 05:49:06;;;;;;;14.75;8.40;;;;;;;18.58;78.26;100242.55;1745811;80;27457;-81
2022/08/28 05:51:34;;;;;;;15.63;9.18;;;;;;;18.65;78.38;100250.52;1743490;80;25790;-83
2022/08/28 05:54:01;;;;;;;15.95;9.08;;;;;;;18.72;78.44;100251.14;1743655;80;25616;-81
2022/08/28 05:56:32;;;;;;;15.72;9.65;;;;;;;18.79;78.75;100253.16;1743034;80;25677;-81
2022/08/28 05:59:00;;;;;;;;;;;;;;;18.85;78.88;100250.27;1745739;80;26135;-81
2022/08/28 06:01:33;;;;;;;15.35;9.15;;;;;;;18.92;79.05;100250.93;1743357;80;27451;-81
2022/08/28 06:04:10;;;;;;;17.00;9.35;;;;;;;18.97;79.02;100255.05;1742972;80;25312;-81
2022/08/28 06:06:40;;;;;;;14.70;8.93;;;;;;;19.05;79.11;100249.19;1749717;80;26054;-81
2022/08/28 06:09:12;;;;;;;17.32;9.10;;;;;;;19.14;79.30;100249.05;1754616;80;26377;-82
2022/08/28 06:11:39;;;;;;;18.02;9.73;;;;;;;19.23;79.16;100251.63;1757805;80;26472;-81
2022/08/28 06:14:09;;;;;;;18.52;9.20;;;;;;;19.32;79.28;100247.94;1746159;80;27618;-81
2022/08/28 06:16:40;;;;;;;19.25;9.20;;;;;;;19.40;79.07;100247.52;1751423;80;25317;-80
2022/08/28 06:19:09;;;;;;;16.05;9.30;;;;;;;19.48;79.18;100243.00;1749165;80;25734;-81
2022/08/28 06:21:37;;;;;;;16.55;9.90;;;;;;;19.46;79.41;100222.62;1761422;80;26690;-82
2022/08/28 06:24:04;;;;;;;15.75;9.60;;;;;;;19.66;79.11;100250.00;1767558;79;25835;-82
2022/08/28 06:26:30;;;;;;;22.00;10.63;;;;;;;19.74;78.87;100249.55;1744153;81;28304;-82
2022/08/28 06:29:03;;;;;;;16.80;9.88;;;;;;;19.82;78.94;100249.91;1762500;79;25857;-82
2022/08/28 06:31:30;;;;;;;16.97;10.00;;;;;;;19.93;78.62;100245.44;1736264;80;25829;-83
2022/08/28 06:33:59;;;;;;;23.80;10.48;;;;;;;20.07;78.87;100252.62;1757874;79;25923;-82
2022/08/28 06:36:29;;;;;;;19.02;9.55;;;;;;;20.18;78.78;100249.76;1763235;80;25803;-82
2022/08/28 06:39:00;;;;;;;19.27;10.18;;;;;;;20.30;78.48;100248.24;1753226;81;27462;-81
2022/08/28 06:41:30;;;;;;;16.20;9.75;;;;;;;20.40;78.51;100245.63;1776516;78;25962;-82
2022/08/28 06:43:57;;;;;;;18.32;10.78;;;;;;;20.52;78.24;100245.73;1731448;81;25661;-82
2022/08/28 06:46:25;;;;;;;19.50;11.50;;;;;;;20.66;77.95;100244.73;1784819;79;25644;-80
2022/08/28 06:48:52;;;;;;;15.40;9.68;;;;;;;20.77;77.54;100246.45;1785595;80;25826;-82
2022/08/28 06:51:18;;;;;;;17.25;10.10;;;;;;;20.91;77.76;100246.29;1783398;80;27455;-82
2022/08/28 06:53:45;;;;;;;16.70;10.93;;;;;;;21.02;77.17;100243.87;1752792;81;26293;-81
2022/08/28 06:56:18;;;;;;;20.95;12.18;;;;;;;21.12;77.45;100241.27;1751485;81;25303;-83
2022/08/28 06:58:47;;;;;;;18.27;10.65;;;;;;;21.23;77.18;100242.97;1785874;80;25478;-82
2022/08/28 07:01:25;;;;;;;14.80;9.68;;;;;;;21.32;76.91;100242.72;1774486;80;25849;-82
2022/08/28 07:03:55;;;;;;;19.50;11.45;;;;;;;21.44;76.92;100238.42;1756256;80;27470;-82
2022/08/28 07:06:22;;;;;;;22.20;11.40;;;;;;;21.57;76.59;100242.02;1759924;80;25268;-82
2022/08/28 07:08:49;;;;;;;19.57;10.32;;;;;;;21.66;76.22;100241.78;1766399;80;25658;-82
2022/08/28 07:11:24;;;;;;;17.32;10.28;;;;;;;21.75;76.53;100237.42;1758295;80;26110;-82
2022/08/28 07:13:51;;;;;;;19.17;10.70;;;;;;;21.87;76.63;100235.86;1756986;80;25959;-82
2022/08/28 07:16:21;;;;;;;18.65;11.25;;;;;;;21.97;75.93;100246.25;1771964;80;28421;-82
2022/08/28 07:18:48;;;;;;;14.85;10.85;;;;;;;22.05;75.88;100242.16;1760440;80;26060;-83
2022/08/28 07:21:15;;;;;;;13.83;11.15;;;;;;;22.13;75.93;100242.44;1752102;79;25232;-82
2022/08/28 07:23:43;;;;;;;15.93;11.22;;;;;;;22.22;76.11;100249.00;1753134;81;25833;-83
2022/08/28 07:26:17;;;;;;;18.40;11.05;;;;;;;22.34;75.94;100243.30;1760341;80;25879;-82
2022/08/28 07:28:44;;;;;;;17.52;11.30;;;;;;;22.44;75.92;100246.02;1783111;80;27510;-82
2022/08/28 07:31:15;;;;;;;22.27;11.85;;;;;;;22.52;75.29;100245.47;1758776;80;26036;-82
2022/08/28 07:33:42;;;;;;;21.68;11.68;;;;;;;22.58;75.01;100251.19;1758203;81;25363;-82
2022/08/28 07:36:12;;;;;;;17.17;11.93;;;;;;;22.66;75.02;100253.96;1756168;80;25689;-82
2022/08/28 07:38:39;;;;;;;16.85;10.75;;;;;;;22.73;74.71;100257.25;1756496;80;25736;-82
2022/08/28 07:41:22;;;;;;;14.63;10.48;;;;;;;22.79;74.99;100261.06;1772194;80;27595;-82
2022/08/28 07:46:36;;;;;;;18.37;11.22;;;;;;;22.99;75.20;100256.09;1819402;76;25781;-83
2022/08/28 07:49:04;;;;;;;20.15;10.80;;;;;;;23.09;75.26;100258.82;1771571;79;25814;-83
2022/08/28 07:51:31;;;;;;;20.23;10.10;;;;;;;23.20;75.38;100254.15;1775430;79;25628;-82
2022/08/28 07:53:57;;;;;;;14.83;11.10;;;;;;;23.29;75.00;100259.32;1747153;81;27493;-83
2022/08/28 07:56:28;;;;;;;12.43;10.10;;;;;;;23.37;75.13;100258.77;1740826;81;25898;-82
2022/08/28 07:58:57;;;;;;;16.50;11.15;;;;;;;23.47;75.15;100259.55;1782520;80;25665;-82
2022/08/28 08:01:25;;;;;;;17.73;11.08;;;;;;;23.56;75.48;100249.67;1749826;81;25779;-82
2022/08/28 08:03:52;;;;;;;21.23;11.35;;;;;;;23.65;75.06;100256.75;1779617;80;25868;-82
2022/08/28 08:06:18;;;;;;;14.55;10.65;;;;;;;23.71;74.92;100255.08;1783104;78;27445;-82
2022/08/28 08:08:45;;;;;;;12.65;10.55;;;;;;;23.82;75.04;100259.94;1780133;78;25885;-82
2022/08/28 08:11:16;;;;;;;12.98;10.55;;;;;;;23.92;74.86;100261.78;1759831;80;25781;-82
2022/08/28 08:13:46;;;;;;;19.42;10.53;;;;;;;24.01;75.06;100258.73;1759696;80;25612;-81
2022/08/28 08:16:20;;;;;;;19.77;12.15;;;;;;;24.13;75.11;100262.78;1765817;79;25725;-82
2022/08/28 08:18:49;;;;;;;12.75;9.88;;;;;;;24.22;74.72;100260.27;1780634;80;27446;-83
2022/08/28 08:21:18;;;;;;;17.85;10.60;;;;;;;24.31;74.79;100262.67;1778155;80;25953;-83
2022/08/28 08:23:46;;;;;;;18.45;9.80;;;;;;;24.39;74.69;100266.16;1782150;79;25534;-82
2022/08/28 08:26:20;;;;;;;13.25;10.13;;;;;;;24.45;74.23;100271.31;1782260;80;25803;-83
2022/08/28 08:28:49;;;;;;;16.45;11.03;;;;;;;24.53;74.26;100269.86;1783852;80;25588;-82
2022/08/28 08:31:25;;;;;;;15.35;11.10;;;;;;;24.63;74.31;100268.98;1751639;80;46916;-82
2022/08/28 08:33:56;;;;;;;12.37;10.13;;;;;;;24.75;74.29;100276.29;1784040;80;25934;-82
2022/08/28 08:36:25;;;;;;;12.95;10.43;;;;;;;24.85;73.95;100266.05;1784709;79;25657;-81
2022/08/28 08:38:53;;;;;;;13.98;10.80;;;;;;;24.96;73.56;100274.44;1763474;81;25597;-82
2022/08/28 08:41:26;;;;;;;17.60;10.18;;;;;;;25.04;72.85;100272.44;1752343;81;25976;-81
2022/08/28 08:44:28;;;;;;;15.08;9.80;;;;;;;25.12;72.97;100274.57;1753848;81;27464;-82
2022/08/28 08:47:34;;;;;;;12.58;10.13;;;;;;;25.21;72.85;100279.66;1776084;80;25946;-81
2022/08/28 08:50:18;;;;;;;11.57;9.43;;;;;;;25.32;72.90;100268.60;1777238;80;26162;-81
2022/08/28 08:52:53;;;;;;;11.75;8.70;;;;;;;25.43;72.64;100266.04;1776928;80;25751;-81
2022/08/28 08:55:49;;;;;;;12.37;8.75;;;;;;;25.51;71.61;100262.64;1781897;79;25811;-82
2022/08/28 08:58:38;;;;;;;12.10;8.33;;;;;;;25.58;71.27;100261.71;1779458;79;27440;-81
2022/08/28 09:01:30;;;;;;;13.50;8.95;;;;;;;25.60;70.50;100262.27;1780865;79;25352;-83
2022/08/28 09:04:17;;;;;;;10.63;8.35;;;;;;;25.62;70.14;100268.27;1782089;79;25843;-83
2022/08/28 09:07:00;;;;;;;12.15;8.88;;;;;;;25.65;70.74;100268.48;1771229;80;26396;-83
2022/08/28 09:09:49;;;;;;;11.20;8.08;;;;;;;25.73;70.29;100265.08;1763503;80;25849;-82
2022/08/28 09:12:24;;;;;;;10.95;8.23;;;;;;;25.78;69.83;100266.40;1796870;79;27620;-82
2022/08/28 09:15:22;;;;;;;10.20;8.58;;;;;;;25.84;69.95;100266.59;1784818;80;25828;-82
2022/08/28 09:17:54;;;;;;;12.85;8.58;;;;;;;25.90;70.33;100265.40;1755354;81;25852;-82
2022/08/28 09:20:27;;;;;;;11.50;7.78;;;;;;;26.00;70.40;100269.95;1781469;79;26274;-82
2022/08/28 09:22:54;;;;;;;17.73;8.00;;;;;;;26.07;69.56;100272.32;1783731;80;25304;-83
2022/08/28 09:25:46;;;;;;;11.78;7.87;;;;;;;26.11;68.99;100274.18;1779054;80;28341;-82
2022/08/28 09:28:30;;;;;;;11.60;8.13;;;;;;;26.15;69.10;100273.88;1782266;80;26492;-82
2022/08/28 09:31:15;;;;;;;8.93;7.70;;;;;;;26.21;69.43;100275.42;1779621;80;25819;-82
2022/08/28 09:33:46;;;;;;;13.05;8.05;;;;;;;26.25;69.32;100269.59;1763925;80;26166;-82
2022/08/28 09:36:33;;;;;;;13.35;8.40;;;;;;;26.30;69.36;100267.33;1765576;80;25842;-83
2022/08/28 09:39:14;;;;;;;11.93;7.90;;;;;;;26.37;69.84;100274.62;1762796;80;27441;-83
2022/08/28 09:45:00;;;;;;;11.60;8.43;;;;;;;26.48;69.42;100271.97;1723602;82;25895;-82
2022/08/28 09:47:47;;;;;;;12.15;8.05;;;;;;;26.54;69.60;100267.47;1734587;82;25982;-81
2022/08/28 09:50:34;;;;;;;11.38;8.35;;;;;;;26.58;68.99;100273.20;1732792;82;25887;-83
2022/08/28 09:53:17;;;;;;;12.93;8.45;;;;;;;26.62;69.09;100272.27;1727120;82;27535;-82
2022/08/28 09:55:55;;;;;;;11.80;9.40;;;;;;;26.68;69.17;100278.52;1725915;82;25742;-83
2022/08/28 09:58:40;;;;;;;12.00;8.50;;;;;;;26.71;68.98;100275.97;1699509;84;25369;-80
2022/08/28 10:01:27;;;;;;;16.20;8.43;;;;;;;26.73;68.86;100275.14;1726153;81;25845;-82
2022/08/28 10:04:34;;;;;;;11.05;7.65;;;;;;;26.71;68.28;100273.23;1761153;80;25802;-83
2022/08/28 10:07:08;;;;;;;10.13;7.87;;;;;;;26.74;68.86;100274.59;1760460;80;27472;-81
2022/08/28 10:10:08;;;;;;;10.20;6.92;;;;;;;26.77;68.19;100276.75;1752535;80;25410;-82
2022/08/28 10:13:12;;;;;;;14.13;8.20;;;;;;;26.82;67.92;100274.48;1762372;80;25812;-81
2022/08/28 10:16:09;;;;;;;10.98;6.58;;;;;;;26.92;67.43;100277.04;1766217;80;25454;-81
2022/08/28 10:19:11;;;;;;;10.28;6.28;;;;;;;27.05;67.54;100274.87;1761181;80;26390;-81
2022/08/28 10:21:45;;;;;;;12.60;6.40;;;;;;;27.15;66.84;100268.63;1764611;80;27476;-81
2022/08/28 10:24:42;;;;;;;8.55;6.55;;;;;;;27.24;65.81;100269.56;1767167;80;26446;-81
2022/08/28 10:27:20;;;;;;;8.98;6.35;;;;;;;27.30;65.34;100267.52;1763664;80;25874;-82
2022/08/28 10:30:15;;;;;;;11.68;6.42;;;;;;;27.34;64.77;100266.60;1768788;80;26376;-81
2022/08/28 10:33:07;;;;;;;10.13;6.05;;;;;;;27.38;64.61;100258.58;1730471;82;26474;-82
2022/08/28 10:35:54;;;;;;;9.78;6.95;;;;;;;27.45;64.74;100255.69;1737839;80;27621;-81
2022/08/28 10:38:39;;;;;;;6.62;5.90;;;;;;;27.54;65.20;100254.41;1747411;80;26415;-81
2022/08/28 10:41:23;;;;;;;8.75;6.00;;;;;;;27.61;64.59;100256.75;1749607;80;25328;-82
2022/08/28 10:43:53;;;;;;;8.08;6.00;;;;;;;27.67;63.63;100261.02;1736687;80;25862;-81
2022/08/28 10:46:25;;;;;;;7.17;5.83;;;;;;;27.72;63.21;100262.27;1824382;77;25881;-81
2022/08/28 10:49:08;;;;;;;10.25;5.45;;;;;;;27.73;63.17;100261.16;1829680;77;27440;-82
2022/08/28 10:51:48;;;;;;;6.95;6.25;;;;;;;27.78;62.92;100263.81;1820341;77;25828;-83
2022/08/28 10:54:51;;;;;;;6.93;5.43;;;;;;;27.82;63.04;100260.69;1822068;77;25304;-81
2022/08/28 10:57:53;;;;;;;10.93;6.05;;;;;;;27.88;62.86;100269.91;1724942;81;25885;-81
2022/08/28 11:00:22;;;;;;;7.53;6.15;;;;;;;27.96;63.09;100265.59;1769844;79;25986;-81
2022/08/28 11:02:56;;;;;;;7.58;5.20;;;;;;;28.03;62.31;100264.64;1772100;80;27453;-81
2022/08/28 11:05:28;;;;;;;9.30;6.05;;;;;;;28.07;62.05;100264.27;1771783;80;25794;-82
2022/08/28 11:08:00;;;;;;;11.57;5.95;;;;;;;28.14;61.86;100266.05;1770944;80;25284;-81
2022/08/28 11:10:35;;;;;;;6.58;5.20;;;;;;;28.21;61.76;100263.10;1769032;80;25780;-81
2022/08/28 11:13:05;;;;;;;11.12;6.00;;;;;;;28.26;61.59;100273.19;1740815;81;25925;-82
2022/08/28 11:15:36;;;;;;;7.40;5.67;;;;;;;28.29;60.88;100266.25;1741545;81;28018;-81
2022/08/28 11:18:17;;;;;;;7.12;5.75;;;;;;;28.32;61.04;100265.61;1739083;81;25933;-81
2022/08/28 11:21:14;;;;;;;10.60;5.83;;;;;;;28.35;61.04;100261.69;1709414;81;25352;-81
2022/08/28 11:23:48;;;;;;;9.20;6.08;;;;;;;28.36;60.39;100261.92;1737614;81;25779;-82
2022/08/28 11:26:23;;;;;;;7.30;5.70;;;;;;;28.39;60.85;100254.42;1740529;81;25833;-81
2022/08/28 11:28:50;;;;;;;10.78;5.87;;;;;;;28.46;60.50;100259.50;1727689;80;27619;-82
2022/08/28 11:31:28;;;;;;;9.93;5.75;;;;;;;28.53;60.95;100254.37;1744966;80;25801;-81
2022/08/28 11:33:57;;;;;;;9.28;5.47;;;;;;;28.60;60.01;100261.09;1752340;80;25842;-81
2022/08/28 11:36:28;;;;;;;8.18;5.42;;;;;;;28.65;60.31;100262.34;1747560;80;25459;-81
2022/08/28 11:39:07;;;;;;;9.80;5.70;;;;;;;28.66;60.05;100261.20;1814138;77;25854;-81
2022/08/28 11:41:37;;;;;;;6.85;5.90;;;;;;;28.66;59.57;100264.52;1800995;76;27465;-82
2022/08/28 11:44:13;;;;;;;6.17;4.75;;;;;;;28.62;59.68;100262.96;1802230;77;26000;-81
2022/08/28 11:46:47;;;;;;;9.55;5.20;;;;;;;28.61;59.50;100271.00;1813153;77;25763;-81
2022/08/28 11:49:38;;;;;;;5.35;4.87;;;;;;;28.59;59.36;100266.33;1811085;77;26126;-81
2022/08/28 11:52:37;;;;;;;5.20;4.47;;;;;;;28.57;59.25;100266.42;1762148;80;25772;-81